sensor_id;sensor_type;location;lat;lon;timestamp;P1;durP1;ratioP1;P2;durP2;ratioP2
53533;SDS011;39421;53.204;6.568;2022-09-16T00:00:10;4.22;;;1.42;;
53533;SDS011;39421;53.204;6.568;2022-09-16T00:02:36;3.08;;;1.20;;
53533;SDS011;39421;53.204;6.568;2022-09-16T00:05:02;4.17;;;1.40;;
53533;SDS011;39421;53.204;6.568;2022-09-16T00:07:28;4.77;;;1.70;;
53533;SDS011;39421;53.204;6.568;2022-09-16T00:09:54;5.57;;;1.20;;
53533;SDS011;39421;53.204;6.568;2022-09-16T00:12:20;2.80;;;1.20;;
53533;SDS011;39421;53.204;6.568;2022-09-16T00:14:46;4.43;;;1.65;;
53533;SDS011;39421;53.204;6.568;2022-09-16T00:17:12;4.05;;;1.27;;
53533;SDS011;39421;53.204;6.568;2022-09-16T00:19:37;4.22;;;1.48;;
53533;SDS011;39421;53.204;6.568;2022-09-16T00:22:03;5.38;;;1.58;;
53533;SDS011;39421;53.204;6.568;2022-09-16T00:24:29;4.95;;;1.38;;
53533;SDS011;39421;53.204;6.568;2022-09-16T00:26:55;4.22;;;1.25;;
53533;SDS011;39421;53.204;6.568;2022-09-16T00:29:21;4.68;;;1.40;;
53533;SDS011;39421;53.204;6.568;2022-09-16T00:31:46;3.10;;;1.20;;
53533;SDS011;39421;53.204;6.568;2022-09-16T00:34:12;2.67;;;1.25;;
53533;SDS011;39421;53.204;6.568;2022-09-16T00:36:38;2.92;;;1.10;;
53533;SDS011;39421;53.204;6.568;2022-09-16T00:39:03;2.78;;;1.17;;
53533;SDS011;39421;53.204;6.568;2022-09-16T00:41:30;2.55;;;1.08;;
53533;SDS011;39421;53.204;6.568;2022-09-16T00:43:59;3.40;;;1.10;;
53533;SDS011;39421;53.204;6.568;2022-09-16T00:51:44;2.58;;;1.10;;
53533;SDS011;39421;53.204;6.568;2022-09-16T00:54:12;2.83;;;1.10;;
53533;SDS011;39421;53.204;6.568;2022-09-16T00:56:40;2.70;;;1.00;;
53533;SDS011;39421;53.204;6.568;2022-09-16T00:59:20;4.85;;;1.10;;
53533;SDS011;39421;53.204;6.568;2022-09-16T01:01:50;2.40;;;1.00;;
53533;SDS011;39421;53.204;6.568;2022-09-16T01:04:30;3.03;;;0.95;;
53533;SDS011;39421;53.204;6.568;2022-09-16T01:06:59;3.30;;;1.10;;
53533;SDS011;39421;53.204;6.568;2022-09-16T01:09:25;4.28;;;1.20;;
53533;SDS011;39421;53.204;6.568;2022-09-16T01:11:53;4.25;;;1.08;;
53533;SDS011;39421;53.204;6.568;2022-09-16T01:14:18;3.45;;;1.05;;
53533;SDS011;39421;53.204;6.568;2022-09-16T01:17:17;2.37;;;1.00;;
53533;SDS011;39421;53.204;6.568;2022-09-16T01:20:24;3.65;;;1.05;;
53533;SDS011;39421;53.204;6.568;2022-09-16T01:23:23;1.65;;;0.77;;
53533;SDS011;39421;53.204;6.568;2022-09-16T01:34:57;4.57;;;1.10;;
53533;SDS011;39421;53.204;6.568;2022-09-16T01:37:34;2.28;;;1.17;;
53533;SDS011;39421;53.204;6.568;2022-09-16T01:43:23;3.67;;;1.00;;
53533;SDS011;39421;53.204;6.568;2022-09-16T01:46:01;2.63;;;1.10;;
53533;SDS011;39421;53.204;6.568;2022-09-16T01:48:35;4.85;;;1.50;;
53533;SDS011;39421;53.204;6.568;2022-09-16T01:54:03;5.30;;;1.20;;
53533;SDS011;39421;53.204;6.568;2022-09-16T01:56:43;4.78;;;1.48;;
53533;SDS011;39421;53.204;6.568;2022-09-16T01:59:59;3.88;;;1.30;;
53533;SDS011;39421;53.204;6.568;2022-09-16T02:02:35;3.30;;;1.00;;
53533;SDS011;39421;53.204;6.568;2022-09-16T02:05:02;3.50;;;1.17;;
53533;SDS011;39421;53.204;6.568;2022-09-16T02:07:35;3.67;;;1.25;;
53533;SDS011;39421;53.204;6.568;2022-09-16T02:10:39;3.45;;;1.10;;
53533;SDS011;39421;53.204;6.568;2022-09-16T02:13:09;2.88;;;1.20;;
53533;SDS011;39421;53.204;6.568;2022-09-16T02:15:40;2.87;;;1.17;;
53533;SDS011;39421;53.204;6.568;2022-09-16T02:18:12;2.95;;;1.27;;
53533;SDS011;39421;53.204;6.568;2022-09-16T02:20:42;3.08;;;1.20;;
53533;SDS011;39421;53.204;6.568;2022-09-16T02:23:24;2.30;;;1.00;;
53533;SDS011;39421;53.204;6.568;2022-09-16T02:25:54;4.05;;;1.20;;
53533;SDS011;39421;53.204;6.568;2022-09-16T02:28:24;5.20;;;1.35;;
53533;SDS011;39421;53.204;6.568;2022-09-16T02:31:01;2.75;;;1.20;;
53533;SDS011;39421;53.204;6.568;2022-09-16T02:33:32;4.03;;;1.38;;
53533;SDS011;39421;53.204;6.568;2022-09-16T02:36:02;2.75;;;1.20;;
53533;SDS011;39421;53.204;6.568;2022-09-16T02:38:34;2.95;;;1.10;;
53533;SDS011;39421;53.204;6.568;2022-09-16T02:41:05;2.30;;;1.00;;
53533;SDS011;39421;53.204;6.568;2022-09-16T02:43:33;2.25;;;1.10;;
53533;SDS011;39421;53.204;6.568;2022-09-16T02:46:21;4.20;;;1.30;;
53533;SDS011;39421;53.204;6.568;2022-09-16T02:48:59;4.47;;;1.48;;
53533;SDS011;39421;53.204;6.568;2022-09-16T02:54:08;4.53;;;1.38;;
53533;SDS011;39421;53.204;6.568;2022-09-16T02:56:44;4.10;;;1.33;;
53533;SDS011;39421;53.204;6.568;2022-09-16T02:59:11;5.22;;;1.42;;
53533;SDS011;39421;53.204;6.568;2022-09-16T03:01:39;4.70;;;1.67;;
53533;SDS011;39421;53.204;6.568;2022-09-16T03:04:08;3.90;;;1.60;;
53533;SDS011;39421;53.204;6.568;2022-09-16T03:06:35;3.08;;;1.33;;
53533;SDS011;39421;53.204;6.568;2022-09-16T03:09:03;4.82;;;1.30;;
53533;SDS011;39421;53.204;6.568;2022-09-16T03:25:12;3.47;;;1.67;;
53533;SDS011;39421;53.204;6.568;2022-09-16T03:27:51;5.43;;;1.63;;
53533;SDS011;39421;53.204;6.568;2022-09-16T03:31:27;5.13;;;1.80;;
53533;SDS011;39421;53.204;6.568;2022-09-16T03:33:34;6.60;;;1.80;;
53533;SDS011;39421;53.204;6.568;2022-09-16T03:36:04;6.22;;;1.42;;
53533;SDS011;39421;53.204;6.568;2022-09-16T03:38:34;5.78;;;1.40;;
53533;SDS011;39421;53.204;6.568;2022-09-16T03:41:02;4.40;;;1.50;;
53533;SDS011;39421;53.204;6.568;2022-09-16T03:43:31;7.28;;;1.50;;
53533;SDS011;39421;53.204;6.568;2022-09-16T03:45:57;6.80;;;1.60;;
53533;SDS011;39421;53.204;6.568;2022-09-16T03:48:23;5.33;;;1.73;;
53533;SDS011;39421;53.204;6.568;2022-09-16T03:50:48;6.20;;;1.80;;
53533;SDS011;39421;53.204;6.568;2022-09-16T03:53:14;5.30;;;1.60;;
53533;SDS011;39421;53.204;6.568;2022-09-16T03:55:40;6.82;;;1.80;;
53533;SDS011;39421;53.204;6.568;2022-09-16T03:58:06;6.32;;;1.60;;
53533;SDS011;39421;53.204;6.568;2022-09-16T04:00:31;6.75;;;1.70;;
53533;SDS011;39421;53.204;6.568;2022-09-16T04:02:57;6.60;;;1.60;;
53533;SDS011;39421;53.204;6.568;2022-09-16T04:05:24;8.18;;;1.75;;
53533;SDS011;39421;53.204;6.568;2022-09-16T04:07:50;4.22;;;1.63;;
53533;SDS011;39421;53.204;6.568;2022-09-16T04:10:16;4.00;;;1.40;;
53533;SDS011;39421;53.204;6.568;2022-09-16T04:12:42;6.70;;;1.70;;
53533;SDS011;39421;53.204;6.568;2022-09-16T04:15:07;3.95;;;1.50;;
53533;SDS011;39421;53.204;6.568;2022-09-16T04:17:34;5.68;;;1.58;;
53533;SDS011;39421;53.204;6.568;2022-09-16T04:19:59;4.87;;;1.73;;
53533;SDS011;39421;53.204;6.568;2022-09-16T04:22:28;6.45;;;1.85;;
53533;SDS011;39421;53.204;6.568;2022-09-16T04:24:55;4.30;;;1.60;;
53533;SDS011;39421;53.204;6.568;2022-09-16T04:27:21;4.38;;;1.95;;
53533;SDS011;39421;53.204;6.568;2022-09-16T04:29:47;5.00;;;1.80;;
53533;SDS011;39421;53.204;6.568;2022-09-16T04:32:13;5.32;;;1.65;;
53533;SDS011;39421;53.204;6.568;2022-09-16T04:34:39;3.90;;;1.60;;
53533;SDS011;39421;53.204;6.568;2022-09-16T04:37:05;5.53;;;1.92;;
53533;SDS011;39421;53.204;6.568;2022-09-16T04:39:31;5.07;;;1.88;;
53533;SDS011;39421;53.204;6.568;2022-09-16T04:41:57;5.17;;;1.70;;
53533;SDS011;39421;53.204;6.568;2022-09-16T04:44:24;4.97;;;1.80;;
53533;SDS011;39421;53.204;6.568;2022-09-16T04:46:51;5.82;;;1.80;;
53533;SDS011;39421;53.204;6.568;2022-09-16T04:49:17;4.73;;;1.40;;
53533;SDS011;39421;53.204;6.568;2022-09-16T04:51:42;4.05;;;1.40;;
53533;SDS011;39421;53.204;6.568;2022-09-16T04:54:08;5.50;;;1.50;;
53533;SDS011;39421;53.204;6.568;2022-09-16T04:56:35;3.78;;;1.63;;
53533;SDS011;39421;53.204;6.568;2022-09-16T04:59:02;5.67;;;1.73;;
53533;SDS011;39421;53.204;6.568;2022-09-16T05:01:30;5.85;;;1.67;;
53533;SDS011;39421;53.204;6.568;2022-09-16T05:03:58;4.70;;;1.63;;
53533;SDS011;39421;53.204;6.568;2022-09-16T05:06:30;6.25;;;1.70;;
53533;SDS011;39421;53.204;6.568;2022-09-16T05:08:57;5.43;;;1.70;;
53533;SDS011;39421;53.204;6.568;2022-09-16T05:11:25;6.00;;;1.80;;
53533;SDS011;39421;53.204;6.568;2022-09-16T05:13:53;6.30;;;1.63;;
53533;SDS011;39421;53.204;6.568;2022-09-16T05:16:22;4.15;;;1.65;;
53533;SDS011;39421;53.204;6.568;2022-09-16T05:18:49;5.30;;;1.83;;
53533;SDS011;39421;53.204;6.568;2022-09-16T05:21:16;5.95;;;1.80;;
53533;SDS011;39421;53.204;6.568;2022-09-16T05:23:44;5.18;;;1.80;;
53533;SDS011;39421;53.204;6.568;2022-09-16T05:26:11;6.70;;;1.80;;
53533;SDS011;39421;53.204;6.568;2022-09-16T05:28:39;7.03;;;1.85;;
53533;SDS011;39421;53.204;6.568;2022-09-16T05:31:09;6.60;;;1.80;;
53533;SDS011;39421;53.204;6.568;2022-09-16T05:33:36;8.00;;;2.00;;
53533;SDS011;39421;53.204;6.568;2022-09-16T05:36:06;3.65;;;1.55;;
53533;SDS011;39421;53.204;6.568;2022-09-16T05:38:34;6.35;;;1.88;;
53533;SDS011;39421;53.204;6.568;2022-09-16T05:41:00;6.33;;;1.90;;
53533;SDS011;39421;53.204;6.568;2022-09-16T05:43:27;5.93;;;2.20;;
53533;SDS011;39421;53.204;6.568;2022-09-16T05:45:53;7.03;;;1.95;;
53533;SDS011;39421;53.204;6.568;2022-09-16T05:48:20;7.90;;;2.40;;
53533;SDS011;39421;53.204;6.568;2022-09-16T05:50:54;6.38;;;1.90;;
53533;SDS011;39421;53.204;6.568;2022-09-16T05:53:21;5.80;;;2.10;;
53533;SDS011;39421;53.204;6.568;2022-09-16T05:58:20;6.55;;;1.88;;
53533;SDS011;39421;53.204;6.568;2022-09-16T06:00:46;6.80;;;2.10;;
53533;SDS011;39421;53.204;6.568;2022-09-16T06:03:12;6.13;;;2.13;;
53533;SDS011;39421;53.204;6.568;2022-09-16T06:05:38;6.00;;;2.00;;
53533;SDS011;39421;53.204;6.568;2022-09-16T06:08:03;7.83;;;2.00;;
53533;SDS011;39421;53.204;6.568;2022-09-16T06:10:29;6.13;;;2.00;;
53533;SDS011;39421;53.204;6.568;2022-09-16T06:12:55;6.27;;;2.20;;
53533;SDS011;39421;53.204;6.568;2022-09-16T06:15:20;5.70;;;1.70;;
53533;SDS011;39421;53.204;6.568;2022-09-16T06:17:46;7.90;;;2.10;;
53533;SDS011;39421;53.204;6.568;2022-09-16T06:20:11;6.27;;;2.30;;
53533;SDS011;39421;53.204;6.568;2022-09-16T06:22:39;6.50;;;2.00;;
53533;SDS011;39421;53.204;6.568;2022-09-16T06:25:05;6.90;;;2.35;;
53533;SDS011;39421;53.204;6.568;2022-09-16T06:27:31;7.38;;;2.10;;
53533;SDS011;39421;53.204;6.568;2022-09-16T06:29:57;5.80;;;2.37;;
53533;SDS011;39421;53.204;6.568;2022-09-16T06:32:23;6.00;;;2.03;;
53533;SDS011;39421;53.204;6.568;2022-09-16T06:34:48;8.18;;;1.98;;
53533;SDS011;39421;53.204;6.568;2022-09-16T06:37:14;4.88;;;1.75;;
53533;SDS011;39421;53.204;6.568;2022-09-16T06:39:40;6.40;;;1.87;;
53533;SDS011;39421;53.204;6.568;2022-09-16T06:42:07;5.25;;;1.92;;
53533;SDS011;39421;53.204;6.568;2022-09-16T06:44:33;6.13;;;2.10;;
53533;SDS011;39421;53.204;6.568;2022-09-16T06:46:58;7.90;;;2.23;;
53533;SDS011;39421;53.204;6.568;2022-09-16T06:49:24;5.10;;;1.83;;
53533;SDS011;39421;53.204;6.568;2022-09-16T06:51:50;6.88;;;1.92;;
53533;SDS011;39421;53.204;6.568;2022-09-16T06:54:16;5.72;;;1.98;;
53533;SDS011;39421;53.204;6.568;2022-09-16T06:56:42;6.68;;;2.20;;
53533;SDS011;39421;53.204;6.568;2022-09-16T06:59:08;5.30;;;1.80;;
53533;SDS011;39421;53.204;6.568;2022-09-16T07:01:34;4.25;;;1.90;;
53533;SDS011;39421;53.204;6.568;2022-09-16T07:04:01;5.47;;;1.70;;
53533;SDS011;39421;53.204;6.568;2022-09-16T07:06:34;6.50;;;2.00;;
53533;SDS011;39421;53.204;6.568;2022-09-16T07:09:00;7.38;;;2.13;;
53533;SDS011;39421;53.204;6.568;2022-09-16T07:11:26;5.70;;;1.73;;
53533;SDS011;39421;53.204;6.568;2022-09-16T07:13:52;5.93;;;1.85;;
53533;SDS011;39421;53.204;6.568;2022-09-16T07:16:22;5.43;;;1.97;;
53533;SDS011;39421;53.204;6.568;2022-09-16T07:18:53;4.75;;;2.05;;
53533;SDS011;39421;53.204;6.568;2022-09-16T07:21:20;8.45;;;2.20;;
53533;SDS011;39421;53.204;6.568;2022-09-16T07:23:49;5.00;;;2.17;;
53533;SDS011;39421;53.204;6.568;2022-09-16T07:26:19;4.68;;;2.00;;
53533;SDS011;39421;53.204;6.568;2022-09-16T07:28:46;5.77;;;2.07;;
53533;SDS011;39421;53.204;6.568;2022-09-16T07:31:24;7.17;;;2.00;;
53533;SDS011;39421;53.204;6.568;2022-09-16T07:33:52;5.03;;;1.90;;
53533;SDS011;39421;53.204;6.568;2022-09-16T07:36:25;6.32;;;2.05;;
53533;SDS011;39421;53.204;6.568;2022-09-16T07:38:53;7.57;;;2.17;;
53533;SDS011;39421;53.204;6.568;2022-09-16T07:41:23;8.25;;;1.92;;
53533;SDS011;39421;53.204;6.568;2022-09-16T07:43:52;6.03;;;2.00;;
53533;SDS011;39421;53.204;6.568;2022-09-16T07:46:20;6.90;;;2.10;;
53533;SDS011;39421;53.204;6.568;2022-09-16T07:48:46;5.97;;;1.90;;
53533;SDS011;39421;53.204;6.568;2022-09-16T07:51:14;6.85;;;1.90;;
53533;SDS011;39421;53.204;6.568;2022-09-16T07:53:43;6.65;;;1.80;;
53533;SDS011;39421;53.204;6.568;2022-09-16T07:56:10;6.25;;;2.15;;
53533;SDS011;39421;53.204;6.568;2022-09-16T07:58:38;4.25;;;1.90;;
53533;SDS011;39421;53.204;6.568;2022-09-16T08:01:05;8.43;;;2.20;;
53533;SDS011;39421;53.204;6.568;2022-09-16T08:03:35;9.15;;;2.33;;
53533;SDS011;39421;53.204;6.568;2022-09-16T08:06:04;8.97;;;2.50;;
53533;SDS011;39421;53.204;6.568;2022-09-16T08:08:35;6.32;;;2.00;;
53533;SDS011;39421;53.204;6.568;2022-09-16T08:11:04;6.20;;;2.17;;
53533;SDS011;39421;53.204;6.568;2022-09-16T08:13:31;8.38;;;2.33;;
53533;SDS011;39421;53.204;6.568;2022-09-16T08:16:08;7.45;;;2.42;;
53533;SDS011;39421;53.204;6.568;2022-09-16T08:18:36;7.45;;;2.17;;
53533;SDS011;39421;53.204;6.568;2022-09-16T08:21:09;7.00;;;2.00;;
53533;SDS011;39421;53.204;6.568;2022-09-16T08:23:39;5.70;;;2.05;;
53533;SDS011;39421;53.204;6.568;2022-09-16T08:26:06;8.13;;;2.42;;
53533;SDS011;39421;53.204;6.568;2022-09-16T08:28:36;8.73;;;2.38;;
53533;SDS011;39421;53.204;6.568;2022-09-16T08:31:06;6.50;;;2.20;;
53533;SDS011;39421;53.204;6.568;2022-09-16T08:33:32;6.07;;;2.05;;
53533;SDS011;39421;53.204;6.568;2022-09-16T08:35:59;5.15;;;1.90;;
53533;SDS011;39421;53.204;6.568;2022-09-16T08:38:26;4.33;;;1.80;;
53533;SDS011;39421;53.204;6.568;2022-09-16T08:41:37;7.18;;;1.90;;
53533;SDS011;39421;53.204;6.568;2022-09-16T08:46:28;5.80;;;1.85;;
53533;SDS011;39421;53.204;6.568;2022-09-16T08:49:16;6.30;;;2.03;;
53533;SDS011;39421;53.204;6.568;2022-09-16T08:52:11;5.72;;;2.00;;
53533;SDS011;39421;53.204;6.568;2022-09-16T08:54:59;9.82;;;2.28;;
53533;SDS011;39421;53.204;6.568;2022-09-16T08:57:33;7.35;;;1.90;;
53533;SDS011;39421;53.204;6.568;2022-09-16T09:00:09;5.28;;;1.83;;
53533;SDS011;39421;53.204;6.568;2022-09-16T09:02:45;6.35;;;1.67;;
53533;SDS011;39421;53.204;6.568;2022-09-16T09:07:52;4.85;;;1.70;;
53533;SDS011;39421;53.204;6.568;2022-09-16T09:27:30;10.27;;;2.07;;
53533;SDS011;39421;53.204;6.568;2022-09-16T09:30:10;10.00;;;2.50;;
53533;SDS011;39421;53.204;6.568;2022-09-16T09:35:46;10.60;;;2.20;;
53533;SDS011;39421;53.204;6.568;2022-09-16T09:41:06;5.50;;;1.75;;
53533;SDS011;39421;53.204;6.568;2022-09-16T09:46:28;5.10;;;1.70;;
53533;SDS011;39421;53.204;6.568;2022-09-16T09:49:02;7.60;;;2.00;;
53533;SDS011;39421;53.204;6.568;2022-09-16T09:51:44;5.47;;;1.50;;
53533;SDS011;39421;53.204;6.568;2022-09-16T09:56:52;5.38;;;1.63;;
53533;SDS011;39421;53.204;6.568;2022-09-16T10:02:28;4.50;;;1.80;;
53533;SDS011;39421;53.204;6.568;2022-09-16T10:04:54;6.90;;;1.83;;
53533;SDS011;39421;53.204;6.568;2022-09-16T10:07:21;7.53;;;1.90;;
53533;SDS011;39421;53.204;6.568;2022-09-16T10:09:50;6.43;;;1.90;;
53533;SDS011;39421;53.204;6.568;2022-09-16T10:12:34;7.25;;;1.98;;
53533;SDS011;39421;53.204;6.568;2022-09-16T10:15:00;5.70;;;1.85;;
53533;SDS011;39421;53.204;6.568;2022-09-16T10:17:29;8.48;;;2.03;;
53533;SDS011;39421;53.204;6.568;2022-09-16T10:20:00;5.47;;;1.88;;
53533;SDS011;39421;53.204;6.568;2022-09-16T10:22:52;4.72;;;1.58;;
53533;SDS011;39421;53.204;6.568;2022-09-16T10:25:28;7.93;;;1.93;;
53533;SDS011;39421;53.204;6.568;2022-09-16T10:27:57;7.23;;;2.00;;
53533;SDS011;39421;53.204;6.568;2022-09-16T10:30:29;6.55;;;2.03;;
53533;SDS011;39421;53.204;6.568;2022-09-16T10:35:26;5.60;;;2.05;;
53533;SDS011;39421;53.204;6.568;2022-09-16T10:38:03;5.35;;;1.75;;
53533;SDS011;39421;53.204;6.568;2022-09-16T10:40:33;5.60;;;1.90;;
53533;SDS011;39421;53.204;6.568;2022-09-16T10:43:01;6.68;;;1.60;;
53533;SDS011;39421;53.204;6.568;2022-09-16T10:45:33;4.85;;;1.80;;
53533;SDS011;39421;53.204;6.568;2022-09-16T10:48:12;6.07;;;1.83;;
53533;SDS011;39421;53.204;6.568;2022-09-16T10:50:55;6.38;;;1.80;;
53533;SDS011;39421;53.204;6.568;2022-09-16T10:53:32;5.40;;;1.50;;
53533;SDS011;39421;53.204;6.568;2022-09-16T10:56:01;4.95;;;1.30;;
53533;SDS011;39421;53.204;6.568;2022-09-16T10:58:41;4.40;;;1.27;;
53533;SDS011;39421;53.204;6.568;2022-09-16T11:04:09;4.47;;;1.50;;
53533;SDS011;39421;53.204;6.568;2022-09-16T11:09:31;5.30;;;1.58;;
53533;SDS011;39421;53.204;6.568;2022-09-16T11:18:06;4.72;;;1.63;;
53533;SDS011;39421;53.204;6.568;2022-09-16T11:29:38;8.45;;;2.30;;
53533;SDS011;39421;53.204;6.568;2022-09-16T11:37:48;7.63;;;2.28;;
53533;SDS011;39421;53.204;6.568;2022-09-16T11:45:50;8.07;;;2.42;;
53533;SDS011;39421;53.204;6.568;2022-09-16T11:56:50;7.18;;;2.15;;
53533;SDS011;39421;53.204;6.568;2022-09-16T12:02:13;6.97;;;2.20;;
53533;SDS011;39421;53.204;6.568;2022-09-16T12:05:13;7.20;;;2.22;;
53533;SDS011;39421;53.204;6.568;2022-09-16T12:10:40;8.13;;;2.40;;
53533;SDS011;39421;53.204;6.568;2022-09-16T12:13:32;10.18;;;2.67;;
53533;SDS011;39421;53.204;6.568;2022-09-16T12:16:04;13.02;;;2.85;;
53533;SDS011;39421;53.204;6.568;2022-09-16T12:18:40;12.57;;;3.13;;
53533;SDS011;39421;53.204;6.568;2022-09-16T12:23:58;10.07;;;2.80;;
53533;SDS011;39421;53.204;6.568;2022-09-16T12:26:37;14.48;;;3.00;;
53533;SDS011;39421;53.204;6.568;2022-09-16T12:29:19;12.75;;;3.05;;
53533;SDS011;39421;53.204;6.568;2022-09-16T12:34:33;8.35;;;2.60;;
53533;SDS011;39421;53.204;6.568;2022-09-16T12:37:10;9.95;;;3.33;;
53533;SDS011;39421;53.204;6.568;2022-09-16T12:39:58;12.40;;;3.13;;
53533;SDS011;39421;53.204;6.568;2022-09-16T12:42:41;9.98;;;3.15;;
53533;SDS011;39421;53.204;6.568;2022-09-16T12:48:03;8.23;;;2.35;;
53533;SDS011;39421;53.204;6.568;2022-09-16T12:53:51;5.72;;;2.10;;
53533;SDS011;39421;53.204;6.568;2022-09-16T13:01:38;4.00;;;1.50;;
53533;SDS011;39421;53.204;6.568;2022-09-16T13:04:16;4.63;;;1.50;;
53533;SDS011;39421;53.204;6.568;2022-09-16T13:06:51;5.03;;;1.50;;
53533;SDS011;39421;53.204;6.568;2022-09-16T13:09:28;6.30;;;1.50;;
53533;SDS011;39421;53.204;6.568;2022-09-16T13:12:01;9.50;;;2.00;;
53533;SDS011;39421;53.204;6.568;2022-09-16T13:14:40;7.43;;;1.73;;
53533;SDS011;39421;53.204;6.568;2022-09-16T13:17:08;7.93;;;2.03;;
53533;SDS011;39421;53.204;6.568;2022-09-16T13:19:44;8.40;;;1.70;;
53533;SDS011;39421;53.204;6.568;2022-09-16T13:22:34;4.28;;;1.20;;
53533;SDS011;39421;53.204;6.568;2022-09-16T13:25:24;6.43;;;1.60;;
53533;SDS011;39421;53.204;6.568;2022-09-16T13:28:00;5.40;;;1.30;;
53533;SDS011;39421;53.204;6.568;2022-09-16T13:30:45;6.85;;;1.67;;
53533;SDS011;39421;53.204;6.568;2022-09-16T13:35:40;3.35;;;1.20;;
53533;SDS011;39421;53.204;6.568;2022-09-16T13:38:34;5.03;;;1.58;;
53533;SDS011;39421;53.204;6.568;2022-09-16T13:41:01;3.83;;;1.20;;
53533;SDS011;39421;53.204;6.568;2022-09-16T13:43:36;4.15;;;0.90;;
53533;SDS011;39421;53.204;6.568;2022-09-16T13:46:28;2.95;;;1.20;;
53533;SDS011;39421;53.204;6.568;2022-09-16T13:51:27;3.72;;;1.20;;
53533;SDS011;39421;53.204;6.568;2022-09-16T13:53:54;4.03;;;1.60;;
53533;SDS011;39421;53.204;6.568;2022-09-16T13:56:31;5.93;;;1.55;;
53533;SDS011;39421;53.204;6.568;2022-09-16T14:15:03;5.90;;;2.25;;
53533;SDS011;39421;53.204;6.568;2022-09-16T14:17:41;6.43;;;2.17;;
53533;SDS011;39421;53.204;6.568;2022-09-16T14:20:12;7.00;;;2.10;;
53533;SDS011;39421;53.204;6.568;2022-09-16T14:22:41;6.27;;;1.90;;
53533;SDS011;39421;53.204;6.568;2022-09-16T14:28:22;7.78;;;2.05;;
53533;SDS011;39421;53.204;6.568;2022-09-16T14:30:54;5.77;;;1.70;;
53533;SDS011;39421;53.204;6.568;2022-09-16T14:33:22;6.13;;;2.00;;
53533;SDS011;39421;53.204;6.568;2022-09-16T14:35:55;5.25;;;1.90;;
53533;SDS011;39421;53.204;6.568;2022-09-16T14:38:24;4.07;;;1.70;;
53533;SDS011;39421;53.204;6.568;2022-09-16T14:40:58;5.40;;;1.80;;
53533;SDS011;39421;53.204;6.568;2022-09-16T14:43:24;3.30;;;1.20;;
53533;SDS011;39421;53.204;6.568;2022-09-16T14:45:51;5.82;;;1.45;;
53533;SDS011;39421;53.204;6.568;2022-09-16T14:48:21;5.40;;;1.48;;
53533;SDS011;39421;53.204;6.568;2022-09-16T14:50:52;5.60;;;1.40;;
53533;SDS011;39421;53.204;6.568;2022-09-16T14:53:23;5.40;;;1.30;;
53533;SDS011;39421;53.204;6.568;2022-09-16T14:55:55;4.72;;;1.60;;
53533;SDS011;39421;53.204;6.568;2022-09-16T14:58:21;7.77;;;1.97;;
53533;SDS011;39421;53.204;6.568;2022-09-16T15:01:06;4.13;;;1.73;;
53533;SDS011;39421;53.204;6.568;2022-09-16T15:03:44;4.88;;;1.63;;
53533;SDS011;39421;53.204;6.568;2022-09-16T15:06:17;5.53;;;1.87;;
53533;SDS011;39421;53.204;6.568;2022-09-16T15:11:45;6.47;;;2.08;;
53533;SDS011;39421;53.204;6.568;2022-09-16T15:14:14;6.00;;;1.95;;
53533;SDS011;39421;53.204;6.568;2022-09-16T15:16:43;7.13;;;2.37;;
53533;SDS011;39421;53.204;6.568;2022-09-16T15:19:24;8.75;;;2.33;;
53533;SDS011;39421;53.204;6.568;2022-09-16T15:21:54;7.97;;;2.50;;
53533;SDS011;39421;53.204;6.568;2022-09-16T15:24:21;8.20;;;2.22;;
53533;SDS011;39421;53.204;6.568;2022-09-16T15:26:52;8.75;;;2.10;;
53533;SDS011;39421;53.204;6.568;2022-09-16T15:31:45;7.95;;;2.10;;
53533;SDS011;39421;53.204;6.568;2022-09-16T15:39:24;8.20;;;1.90;;
53533;SDS011;39421;53.204;6.568;2022-09-16T15:42:11;5.10;;;1.80;;
53533;SDS011;39421;53.204;6.568;2022-09-16T15:44:44;4.13;;;1.63;;
53533;SDS011;39421;53.204;6.568;2022-09-16T15:47:21;6.40;;;1.80;;
53533;SDS011;39421;53.204;6.568;2022-09-16T15:49:52;8.53;;;1.73;;
53533;SDS011;39421;53.204;6.568;2022-09-16T15:52:24;5.43;;;1.92;;
53533;SDS011;39421;53.204;6.568;2022-09-16T15:54:54;6.60;;;2.00;;
53533;SDS011;39421;53.204;6.568;2022-09-16T16:00:10;7.65;;;2.22;;
53533;SDS011;39421;53.204;6.568;2022-09-16T16:02:52;6.43;;;2.20;;
53533;SDS011;39421;53.204;6.568;2022-09-16T16:05:24;6.88;;;1.95;;
53533;SDS011;39421;53.204;6.568;2022-09-16T16:07:58;5.50;;;1.77;;
53533;SDS011;39421;53.204;6.568;2022-09-16T16:10:28;7.38;;;2.38;;
53533;SDS011;39421;53.204;6.568;2022-09-16T16:12:56;7.50;;;2.30;;
53533;SDS011;39421;53.204;6.568;2022-09-16T16:15:24;8.15;;;2.50;;
53533;SDS011;39421;53.204;6.568;2022-09-16T16:17:51;6.35;;;2.33;;
53533;SDS011;39421;53.204;6.568;2022-09-16T16:20:20;5.10;;;2.28;;
53533;SDS011;39421;53.204;6.568;2022-09-16T16:22:46;6.97;;;2.30;;
53533;SDS011;39421;53.204;6.568;2022-09-16T16:25:12;7.60;;;2.13;;
53533;SDS011;39421;53.204;6.568;2022-09-16T16:27:38;6.45;;;2.08;;
53533;SDS011;39421;53.204;6.568;2022-09-16T16:30:04;6.85;;;2.30;;
53533;SDS011;39421;53.204;6.568;2022-09-16T16:32:31;6.53;;;2.10;;
53533;SDS011;39421;53.204;6.568;2022-09-16T16:34:58;9.32;;;2.35;;
53533;SDS011;39421;53.204;6.568;2022-09-16T16:37:25;7.53;;;2.23;;
53533;SDS011;39421;53.204;6.568;2022-09-16T16:39:51;5.20;;;1.93;;
53533;SDS011;39421;53.204;6.568;2022-09-16T16:42:17;4.75;;;1.90;;
53533;SDS011;39421;53.204;6.568;2022-09-16T16:44:44;5.10;;;1.80;;
53533;SDS011;39421;53.204;6.568;2022-09-16T16:47:10;5.03;;;1.63;;
53533;SDS011;39421;53.204;6.568;2022-09-16T16:49:36;6.00;;;1.90;;
53533;SDS011;39421;53.204;6.568;2022-09-16T16:52:02;6.25;;;1.90;;
53533;SDS011;39421;53.204;6.568;2022-09-16T16:54:29;5.43;;;1.90;;
53533;SDS011;39421;53.204;6.568;2022-09-16T16:56:56;8.27;;;2.33;;
53533;SDS011;39421;53.204;6.568;2022-09-16T16:59:22;4.18;;;1.70;;
53533;SDS011;39421;53.204;6.568;2022-09-16T17:01:49;6.63;;;1.97;;
53533;SDS011;39421;53.204;6.568;2022-09-16T17:04:17;8.48;;;2.00;;
53533;SDS011;39421;53.204;6.568;2022-09-16T17:06:43;7.72;;;2.08;;
53533;SDS011;39421;53.204;6.568;2022-09-16T17:09:09;6.53;;;1.58;;
53533;SDS011;39421;53.204;6.568;2022-09-16T17:11:36;5.35;;;1.50;;
53533;SDS011;39421;53.204;6.568;2022-09-16T17:14:13;5.13;;;1.55;;
53533;SDS011;39421;53.204;6.568;2022-09-16T17:16:39;5.15;;;1.70;;
53533;SDS011;39421;53.204;6.568;2022-09-16T17:19:11;4.68;;;1.50;;
53533;SDS011;39421;53.204;6.568;2022-09-16T17:21:37;5.60;;;2.10;;
53533;SDS011;39421;53.204;6.568;2022-09-16T17:24:04;4.68;;;1.63;;
53533;SDS011;39421;53.204;6.568;2022-09-16T17:26:30;6.65;;;1.70;;
53533;SDS011;39421;53.204;6.568;2022-09-16T17:28:57;4.70;;;1.67;;
53533;SDS011;39421;53.204;6.568;2022-09-16T17:31:26;3.10;;;1.80;;
53533;SDS011;39421;53.204;6.568;2022-09-16T17:33:54;6.80;;;2.55;;
53533;SDS011;39421;53.204;6.568;2022-09-16T17:36:21;8.13;;;2.60;;
53533;SDS011;39421;53.204;6.568;2022-09-16T17:38:58;5.70;;;2.47;;
53533;SDS011;39421;53.204;6.568;2022-09-16T17:41:29;6.85;;;2.30;;
53533;SDS011;39421;53.204;6.568;2022-09-16T17:43:55;8.23;;;2.60;;
53533;SDS011;39421;53.204;6.568;2022-09-16T17:46:22;10.40;;;3.35;;
53533;SDS011;39421;53.204;6.568;2022-09-16T17:48:51;12.70;;;3.35;;
53533;SDS011;39421;53.204;6.568;2022-09-16T17:51:22;10.05;;;3.45;;
53533;SDS011;39421;53.204;6.568;2022-09-16T17:53:48;11.00;;;3.53;;
53533;SDS011;39421;53.204;6.568;2022-09-16T17:56:14;12.63;;;4.03;;
53533;SDS011;39421;53.204;6.568;2022-09-16T17:58:41;12.27;;;3.88;;
53533;SDS011;39421;53.204;6.568;2022-09-16T18:01:09;10.77;;;4.03;;
53533;SDS011;39421;53.204;6.568;2022-09-16T18:03:37;14.52;;;3.95;;
53533;SDS011;39421;53.204;6.568;2022-09-16T18:08:34;12.02;;;2.90;;
53533;SDS011;39421;53.204;6.568;2022-09-16T18:11:00;7.25;;;2.63;;